sensor_id;sensor_type;location;lat;lon;timestamp;P1;durP1;ratioP1;P2;durP2;ratioP2
75858;SDS011;64504;51.308;8.620;2023-01-05T00:01:07;18.55;;;5.38;;
75858;SDS011;64504;51.308;8.620;2023-01-05T00:03:34;19.38;;;4.97;;
75858;SDS011;64504;51.308;8.620;2023-01-05T00:06:01;34.95;;;7.18;;
75858;SDS011;64504;51.308;8.620;2023-01-05T00:08:28;24.75;;;5.30;;
75858;SDS011;64504;51.308;8.620;2023-01-05T00:10:54;21.88;;;5.60;;
75858;SDS011;64504;51.308;8.620;2023-01-05T00:13:38;25.75;;;5.68;;
75858;SDS011;64504;51.308;8.620;2023-01-05T00:16:22;22.50;;;4.35;;
75858;SDS011;64504;51.308;8.620;2023-01-05T00:19:10;21.85;;;5.88;;
75858;SDS011;64504;51.308;8.620;2023-01-05T00:21:55;16.27;;;5.47;;
75858;SDS011;64504;51.308;8.620;2023-01-05T00:24:39;4.65;;;4.10;;
75858;SDS011;64504;51.308;8.620;2023-01-05T00:27:05;13.60;;;6.20;;
75858;SDS011;64504;51.308;8.620;2023-01-05T00:29:30;16.17;;;5.38;;
75858;SDS011;64504;51.308;8.620;2023-01-05T00:31:57;14.00;;;5.20;;
75858;SDS011;64504;51.308;8.620;2023-01-05T00:34:22;23.33;;;6.85;;
75858;SDS011;64504;51.308;8.620;2023-01-05T00:36:48;10.43;;;5.07;;
75858;SDS011;64504;51.308;8.620;2023-01-05T00:39:13;17.65;;;5.88;;
75858;SDS011;64504;51.308;8.620;2023-01-05T00:41:39;12.57;;;4.70;;
75858;SDS011;64504;51.308;8.620;2023-01-05T00:44:04;10.13;;;4.20;;
75858;SDS011;64504;51.308;8.620;2023-01-05T00:46:30;25.85;;;4.72;;
75858;SDS011;64504;51.308;8.620;2023-01-05T00:48:55;8.90;;;4.30;;
75858;SDS011;64504;51.308;8.620;2023-01-05T00:51:21;10.25;;;3.88;;
75858;SDS011;64504;51.308;8.620;2023-01-05T00:53:47;9.88;;;4.25;;
75858;SDS011;64504;51.308;8.620;2023-01-05T00:56:12;7.82;;;4.38;;
75858;SDS011;64504;51.308;8.620;2023-01-05T00:58:38;20.05;;;5.70;;
75858;SDS011;64504;51.308;8.620;2023-01-05T01:01:10;13.23;;;5.30;;
75858;SDS011;64504;51.308;8.620;2023-01-05T01:03:36;17.35;;;4.03;;
75858;SDS011;64504;51.308;8.620;2023-01-05T01:06:01;19.40;;;3.85;;
75858;SDS011;64504;51.308;8.620;2023-01-05T01:08:28;20.30;;;5.32;;
75858;SDS011;64504;51.308;8.620;2023-01-05T01:10:53;14.50;;;5.32;;
75858;SDS011;64504;51.308;8.620;2023-01-05T01:13:19;19.70;;;4.88;;
75858;SDS011;64504;51.308;8.620;2023-01-05T01:15:44;12.10;;;5.28;;
75858;SDS011;64504;51.308;8.620;2023-01-05T01:18:11;29.13;;;6.45;;
75858;SDS011;64504;51.308;8.620;2023-01-05T01:20:36;18.05;;;4.85;;
75858;SDS011;64504;51.308;8.620;2023-01-05T01:23:02;26.08;;;7.10;;
75858;SDS011;64504;51.308;8.620;2023-01-05T01:25:28;17.27;;;5.18;;
75858;SDS011;64504;51.308;8.620;2023-01-05T01:27:54;17.45;;;6.75;;
75858;SDS011;64504;51.308;8.620;2023-01-05T01:30:20;14.55;;;5.65;;
75858;SDS011;64504;51.308;8.620;2023-01-05T01:32:45;6.57;;;4.30;;
75858;SDS011;64504;51.308;8.620;2023-01-05T01:35:11;14.40;;;5.65;;
75858;SDS011;64504;51.308;8.620;2023-01-05T01:37:36;16.50;;;6.15;;
75858;SDS011;64504;51.308;8.620;2023-01-05T01:40:02;8.88;;;4.30;;
75858;SDS011;64504;51.308;8.620;2023-01-05T01:42:28;13.98;;;5.18;;
75858;SDS011;64504;51.308;8.620;2023-01-05T01:47:27;24.38;;;6.95;;
75858;SDS011;64504;51.308;8.620;2023-01-05T01:49:54;15.60;;;5.38;;
75858;SDS011;64504;51.308;8.620;2023-01-05T01:52:22;27.25;;;6.85;;
75858;SDS011;64504;51.308;8.620;2023-01-05T01:54:49;23.05;;;5.15;;
75858;SDS011;64504;51.308;8.620;2023-01-05T01:57:16;17.05;;;5.85;;
75858;SDS011;64504;51.308;8.620;2023-01-05T01:59:43;14.80;;;6.13;;
75858;SDS011;64504;51.308;8.620;2023-01-05T02:02:09;9.13;;;5.28;;
75858;SDS011;64504;51.308;8.620;2023-01-05T02:04:35;9.95;;;3.95;;
75858;SDS011;64504;51.308;8.620;2023-01-05T02:07:02;11.50;;;6.28;;
75858;SDS011;64504;51.308;8.620;2023-01-05T02:09:28;8.32;;;4.45;;
75858;SDS011;64504;51.308;8.620;2023-01-05T02:11:57;6.68;;;3.30;;
75858;SDS011;64504;51.308;8.620;2023-01-05T02:28:54;24.42;;;5.43;;
75858;SDS011;64504;51.308;8.620;2023-01-05T02:34:44;9.45;;;4.90;;
75858;SDS011;64504;51.308;8.620;2023-01-05T02:37:14;3.78;;;2.88;;
75858;SDS011;64504;51.308;8.620;2023-01-05T02:39:51;9.32;;;3.85;;
75858;SDS011;64504;51.308;8.620;2023-01-05T02:42:27;10.30;;;4.22;;
75858;SDS011;64504;51.308;8.620;2023-01-05T02:44:59;7.18;;;4.10;;
75858;SDS011;64504;51.308;8.620;2023-01-05T02:55:39;16.77;;;4.65;;
75858;SDS011;64504;51.308;8.620;2023-01-05T02:58:12;13.55;;;5.93;;
75858;SDS011;64504;51.308;8.620;2023-01-05T03:00:42;14.93;;;7.00;;
75858;SDS011;64504;51.308;8.620;2023-01-05T03:03:17;7.55;;;5.00;;
75858;SDS011;64504;51.308;8.620;2023-01-05T03:05:51;10.30;;;5.80;;
75858;SDS011;64504;51.308;8.620;2023-01-05T03:08:19;27.48;;;8.02;;
75858;SDS011;64504;51.308;8.620;2023-01-05T03:10:59;14.52;;;7.75;;
75858;SDS011;64504;51.308;8.620;2023-01-05T03:13:45;25.30;;;7.75;;
75858;SDS011;64504;51.308;8.620;2023-01-05T03:16:23;26.17;;;8.20;;
75858;SDS011;64504;51.308;8.620;2023-01-05T03:18:51;16.20;;;6.32;;
75858;SDS011;64504;51.308;8.620;2023-01-05T03:21:36;11.95;;;6.80;;
75858;SDS011;64504;51.308;8.620;2023-01-05T03:24:20;13.85;;;6.20;;
75858;SDS011;64504;51.308;8.620;2023-01-05T03:27:04;25.67;;;8.93;;
75858;SDS011;64504;51.308;8.620;2023-01-05T03:29:50;21.90;;;7.65;;
75858;SDS011;64504;51.308;8.620;2023-01-05T03:32:35;29.48;;;7.82;;
75858;SDS011;64504;51.308;8.620;2023-01-05T03:35:27;24.90;;;8.55;;
75858;SDS011;64504;51.308;8.620;2023-01-05T03:40:31;10.00;;;6.43;;
75858;SDS011;64504;51.308;8.620;2023-01-05T03:42:57;20.13;;;8.00;;
75858;SDS011;64504;51.308;8.620;2023-01-05T03:45:25;23.98;;;8.48;;
75858;SDS011;64504;51.308;8.620;2023-01-05T03:47:56;16.48;;;6.97;;
75858;SDS011;64504;51.308;8.620;2023-01-05T03:50:21;18.45;;;6.57;;
75858;SDS011;64504;51.308;8.620;2023-01-05T03:52:47;15.02;;;6.82;;
75858;SDS011;64504;51.308;8.620;2023-01-05T03:55:12;14.82;;;6.88;;
75858;SDS011;64504;51.308;8.620;2023-01-05T03:57:39;19.00;;;7.43;;
75858;SDS011;64504;51.308;8.620;2023-01-05T04:00:05;13.70;;;6.75;;
75858;SDS011;64504;51.308;8.620;2023-01-05T04:02:33;18.33;;;6.70;;
75858;SDS011;64504;51.308;8.620;2023-01-05T04:04:59;11.80;;;6.57;;
75858;SDS011;64504;51.308;8.620;2023-01-05T04:07:24;21.50;;;6.68;;
75858;SDS011;64504;51.308;8.620;2023-01-05T04:09:50;11.75;;;6.53;;
75858;SDS011;64504;51.308;8.620;2023-01-05T04:12:15;10.63;;;5.82;;
75858;SDS011;64504;51.308;8.620;2023-01-05T04:14:41;15.52;;;6.93;;
75858;SDS011;64504;51.308;8.620;2023-01-05T04:17:06;22.42;;;7.68;;
75858;SDS011;64504;51.308;8.620;2023-01-05T04:19:32;14.23;;;7.10;;
75858;SDS011;64504;51.308;8.620;2023-01-05T04:21:57;25.35;;;9.30;;
75858;SDS011;64504;51.308;8.620;2023-01-05T04:24:23;17.05;;;8.18;;
75858;SDS011;64504;51.308;8.620;2023-01-05T04:26:48;8.20;;;5.82;;
75858;SDS011;64504;51.308;8.620;2023-01-05T04:29:14;16.48;;;6.80;;
75858;SDS011;64504;51.308;8.620;2023-01-05T04:31:39;10.60;;;5.13;;
75858;SDS011;64504;51.308;8.620;2023-01-05T04:34:05;16.80;;;6.85;;
75858;SDS011;64504;51.308;8.620;2023-01-05T04:36:30;13.55;;;7.65;;
75858;SDS011;64504;51.308;8.620;2023-01-05T04:38:55;16.90;;;7.78;;
75858;SDS011;64504;51.308;8.620;2023-01-05T04:41:21;16.75;;;6.40;;
75858;SDS011;64504;51.308;8.620;2023-01-05T04:43:46;20.67;;;8.10;;
75858;SDS011;64504;51.308;8.620;2023-01-05T04:46:12;15.90;;;6.88;;
75858;SDS011;64504;51.308;8.620;2023-01-05T04:48:37;14.32;;;5.60;;
75858;SDS011;64504;51.308;8.620;2023-01-05T04:51:03;17.13;;;7.40;;
75858;SDS011;64504;51.308;8.620;2023-01-05T04:53:28;9.95;;;5.43;;
75858;SDS011;64504;51.308;8.620;2023-01-05T04:55:54;21.35;;;8.55;;
75858;SDS011;64504;51.308;8.620;2023-01-05T04:58:19;9.82;;;6.30;;
75858;SDS011;64504;51.308;8.620;2023-01-05T05:00:47;13.18;;;5.47;;
75858;SDS011;64504;51.308;8.620;2023-01-05T05:03:13;5.63;;;4.72;;
75858;SDS011;64504;51.308;8.620;2023-01-05T05:05:38;12.82;;;6.07;;
75858;SDS011;64504;51.308;8.620;2023-01-05T05:08:04;5.65;;;5.07;;
75858;SDS011;64504;51.308;8.620;2023-01-05T05:10:29;18.17;;;6.43;;
75858;SDS011;64504;51.308;8.620;2023-01-05T05:12:55;9.10;;;7.35;;
75858;SDS011;64504;51.308;8.620;2023-01-05T05:15:20;15.07;;;8.18;;
75858;SDS011;64504;51.308;8.620;2023-01-05T05:17:46;10.13;;;7.80;;
75858;SDS011;64504;51.308;8.620;2023-01-05T05:20:12;18.65;;;7.97;;
75858;SDS011;64504;51.308;8.620;2023-01-05T05:22:38;20.20;;;8.35;;
75858;SDS011;64504;51.308;8.620;2023-01-05T05:25:03;18.75;;;7.70;;
75858;SDS011;64504;51.308;8.620;2023-01-05T05:27:29;18.48;;;7.00;;
75858;SDS011;64504;51.308;8.620;2023-01-05T05:29:54;19.48;;;7.10;;
75858;SDS011;64504;51.308;8.620;2023-01-05T05:32:20;14.73;;;7.20;;
75858;SDS011;64504;51.308;8.620;2023-01-05T05:34:45;8.27;;;6.35;;
75858;SDS011;64504;51.308;8.620;2023-01-05T05:37:11;17.48;;;6.63;;
75858;SDS011;64504;51.308;8.620;2023-01-05T05:39:37;12.40;;;4.63;;
75858;SDS011;64504;51.308;8.620;2023-01-05T05:42:02;12.50;;;6.60;;
75858;SDS011;64504;51.308;8.620;2023-01-05T05:44:28;15.60;;;7.00;;
75858;SDS011;64504;51.308;8.620;2023-01-05T05:46:54;23.23;;;9.13;;
75858;SDS011;64504;51.308;8.620;2023-01-05T05:49:19;11.77;;;6.00;;
75858;SDS011;64504;51.308;8.620;2023-01-05T05:51:44;18.77;;;7.05;;
75858;SDS011;64504;51.308;8.620;2023-01-05T05:54:10;18.98;;;9.07;;
75858;SDS011;64504;51.308;8.620;2023-01-05T05:56:35;17.33;;;7.45;;
75858;SDS011;64504;51.308;8.620;2023-01-05T05:59:01;14.30;;;8.27;;
75858;SDS011;64504;51.308;8.620;2023-01-05T06:01:26;9.63;;;6.38;;
75858;SDS011;64504;51.308;8.620;2023-01-05T06:03:52;9.18;;;6.45;;
75858;SDS011;64504;51.308;8.620;2023-01-05T06:06:17;10.75;;;7.15;;
75858;SDS011;64504;51.308;8.620;2023-01-05T06:08:43;13.25;;;6.75;;
75858;SDS011;64504;51.308;8.620;2023-01-05T06:11:08;20.67;;;7.22;;
75858;SDS011;64504;51.308;8.620;2023-01-05T06:13:34;10.80;;;8.23;;
75858;SDS011;64504;51.308;8.620;2023-01-05T06:15:59;13.55;;;8.15;;
75858;SDS011;64504;51.308;8.620;2023-01-05T06:18:25;11.50;;;7.60;;
75858;SDS011;64504;51.308;8.620;2023-01-05T06:20:52;16.10;;;7.05;;
75858;SDS011;64504;51.308;8.620;2023-01-05T06:23:18;21.33;;;7.30;;
75858;SDS011;64504;51.308;8.620;2023-01-05T06:25:43;17.63;;;8.38;;
75858;SDS011;64504;51.308;8.620;2023-01-05T06:28:09;17.60;;;7.18;;
75858;SDS011;64504;51.308;8.620;2023-01-05T06:30:34;12.60;;;6.40;;
75858;SDS011;64504;51.308;8.620;2023-01-05T06:33:00;13.60;;;7.40;;
75858;SDS011;64504;51.308;8.620;2023-01-05T06:35:25;12.43;;;7.53;;
75858;SDS011;64504;51.308;8.620;2023-01-05T06:37:50;12.73;;;8.02;;
75858;SDS011;64504;51.308;8.620;2023-01-05T06:40:16;13.73;;;7.13;;
75858;SDS011;64504;51.308;8.620;2023-01-05T06:42:42;20.60;;;7.57;;
75858;SDS011;64504;51.308;8.620;2023-01-05T06:45:08;12.32;;;8.68;;
75858;SDS011;64504;51.308;8.620;2023-01-05T06:47:34;17.90;;;7.75;;
75858;SDS011;64504;51.308;8.620;2023-01-05T06:50:00;11.52;;;8.18;;
75858;SDS011;64504;51.308;8.620;2023-01-05T06:52:25;9.77;;;6.13;;
75858;SDS011;64504;51.308;8.620;2023-01-05T06:54:51;11.32;;;5.80;;
75858;SDS011;64504;51.308;8.620;2023-01-05T06:57:17;7.75;;;5.68;;
75858;SDS011;64504;51.308;8.620;2023-01-05T06:59:42;13.15;;;6.18;;
75858;SDS011;64504;51.308;8.620;2023-01-05T07:02:14;7.60;;;4.30;;
75858;SDS011;64504;51.308;8.620;2023-01-05T07:04:40;6.47;;;4.50;;
75858;SDS011;64504;51.308;8.620;2023-01-05T07:07:07;10.55;;;4.80;;
75858;SDS011;64504;51.308;8.620;2023-01-05T07:09:35;8.55;;;5.28;;
75858;SDS011;64504;51.308;8.620;2023-01-05T07:12:01;6.90;;;4.22;;
75858;SDS011;64504;51.308;8.620;2023-01-05T07:14:26;10.32;;;4.68;;
75858;SDS011;64504;51.308;8.620;2023-01-05T07:16:53;15.60;;;4.65;;
75858;SDS011;64504;51.308;8.620;2023-01-05T07:19:18;16.25;;;5.28;;
75858;SDS011;64504;51.308;8.620;2023-01-05T07:21:43;10.00;;;5.30;;
75858;SDS011;64504;51.308;8.620;2023-01-05T07:24:11;7.47;;;4.15;;
75858;SDS011;64504;51.308;8.620;2023-01-05T07:26:36;5.22;;;4.32;;
75858;SDS011;64504;51.308;8.620;2023-01-05T07:29:03;10.18;;;4.40;;
75858;SDS011;64504;51.308;8.620;2023-01-05T07:31:28;11.38;;;5.20;;
75858;SDS011;64504;51.308;8.620;2023-01-05T07:33:54;8.10;;;3.38;;
75858;SDS011;64504;51.308;8.620;2023-01-05T07:36:19;5.78;;;4.85;;
75858;SDS011;64504;51.308;8.620;2023-01-05T07:38:45;8.63;;;4.88;;
75858;SDS011;64504;51.308;8.620;2023-01-05T07:41:10;10.45;;;4.47;;
75858;SDS011;64504;51.308;8.620;2023-01-05T07:43:36;7.63;;;4.38;;
75858;SDS011;64504;51.308;8.620;2023-01-05T07:46:02;8.55;;;5.82;;
75858;SDS011;64504;51.308;8.620;2023-01-05T07:48:28;8.20;;;5.10;;
75858;SDS011;64504;51.308;8.620;2023-01-05T07:51:04;6.78;;;4.35;;
75858;SDS011;64504;51.308;8.620;2023-01-05T07:55:58;8.43;;;4.30;;
75858;SDS011;64504;51.308;8.620;2023-01-05T07:58:25;6.03;;;3.92;;
75858;SDS011;64504;51.308;8.620;2023-01-05T08:00:51;2.80;;;2.60;;
75858;SDS011;64504;51.308;8.620;2023-01-05T08:03:17;10.18;;;3.80;;
75858;SDS011;64504;51.308;8.620;2023-01-05T08:05:42;4.63;;;3.72;;
75858;SDS011;64504;51.308;8.620;2023-01-05T08:08:08;3.00;;;1.77;;
75858;SDS011;64504;51.308;8.620;2023-01-05T08:10:34;4.53;;;3.28;;
75858;SDS011;64504;51.308;8.620;2023-01-05T08:13:02;3.72;;;3.30;;
75858;SDS011;64504;51.308;8.620;2023-01-05T08:15:49;3.53;;;2.63;;
75858;SDS011;64504;51.308;8.620;2023-01-05T08:18:15;8.80;;;3.50;;
75858;SDS011;64504;51.308;8.620;2023-01-05T08:20:40;4.18;;;3.67;;
75858;SDS011;64504;51.308;8.620;2023-01-05T08:23:06;3.53;;;3.22;;
75858;SDS011;64504;51.308;8.620;2023-01-05T08:25:31;6.85;;;4.03;;
75858;SDS011;64504;51.308;8.620;2023-01-05T08:27:57;3.97;;;3.00;;
75858;SDS011;64504;51.308;8.620;2023-01-05T08:30:23;14.45;;;4.20;;
75858;SDS011;64504;51.308;8.620;2023-01-05T08:32:48;10.70;;;4.80;;
75858;SDS011;64504;51.308;8.620;2023-01-05T08:35:14;10.80;;;5.30;;
75858;SDS011;64504;51.308;8.620;2023-01-05T08:37:42;8.23;;;4.40;;
75858;SDS011;64504;51.308;8.620;2023-01-05T08:40:08;6.10;;;5.47;;
75858;SDS011;64504;51.308;8.620;2023-01-05T08:42:34;7.88;;;5.18;;
75858;SDS011;64504;51.308;8.620;2023-01-05T08:45:00;5.25;;;3.83;;
75858;SDS011;64504;51.308;8.620;2023-01-05T08:47:25;16.55;;;5.20;;
75858;SDS011;64504;51.308;8.620;2023-01-05T08:49:52;4.82;;;4.40;;
75858;SDS011;64504;51.308;8.620;2023-01-05T08:52:17;8.98;;;4.50;;
75858;SDS011;64504;51.308;8.620;2023-01-05T08:54:43;15.13;;;4.97;;
75858;SDS011;64504;51.308;8.620;2023-01-05T08:57:09;11.98;;;5.55;;
75858;SDS011;64504;51.308;8.620;2023-01-05T08:59:34;8.15;;;3.15;;
75858;SDS011;64504;51.308;8.620;2023-01-05T09:01:59;18.67;;;5.25;;
75858;SDS011;64504;51.308;8.620;2023-01-05T09:04:25;10.63;;;5.10;;
75858;SDS011;64504;51.308;8.620;2023-01-05T09:06:51;10.52;;;4.85;;
75858;SDS011;64504;51.308;8.620;2023-01-05T09:09:17;6.13;;;4.82;;
75858;SDS011;64504;51.308;8.620;2023-01-05T09:11:43;5.03;;;4.53;;
75858;SDS011;64504;51.308;8.620;2023-01-05T09:14:12;7.22;;;5.00;;
75858;SDS011;64504;51.308;8.620;2023-01-05T09:16:39;8.93;;;4.88;;
75858;SDS011;64504;51.308;8.620;2023-01-05T09:19:05;3.70;;;3.40;;
75858;SDS011;64504;51.308;8.620;2023-01-05T09:21:30;11.07;;;4.88;;
75858;SDS011;64504;51.308;8.620;2023-01-05T09:23:56;5.10;;;3.53;;
75858;SDS011;64504;51.308;8.620;2023-01-05T09:26:21;8.32;;;4.47;;
75858;SDS011;64504;51.308;8.620;2023-01-05T09:28:48;8.43;;;5.03;;
75858;SDS011;64504;51.308;8.620;2023-01-05T09:31:15;9.15;;;5.50;;
75858;SDS011;64504;51.308;8.620;2023-01-05T09:33:42;14.88;;;5.25;;
75858;SDS011;64504;51.308;8.620;2023-01-05T09:36:08;9.32;;;5.43;;
75858;SDS011;64504;51.308;8.620;2023-01-05T09:38:35;17.20;;;5.07;;
75858;SDS011;64504;51.308;8.620;2023-01-05T09:43:36;11.88;;;5.82;;
75858;SDS011;64504;51.308;8.620;2023-01-05T09:46:05;12.85;;;7.05;;
75858;SDS011;64504;51.308;8.620;2023-01-05T09:48:44;10.52;;;6.13;;
75858;SDS011;64504;51.308;8.620;2023-01-05T09:51:11;11.38;;;5.90;;
75858;SDS011;64504;51.308;8.620;2023-01-05T09:53:37;10.73;;;7.38;;
75858;SDS011;64504;51.308;8.620;2023-01-05T09:56:03;16.65;;;8.68;;
75858;SDS011;64504;51.308;8.620;2023-01-05T09:58:32;10.18;;;6.85;;
75858;SDS011;64504;51.308;8.620;2023-01-05T10:04:05;24.67;;;9.18;;
75858;SDS011;64504;51.308;8.620;2023-01-05T10:06:36;12.05;;;7.47;;
75858;SDS011;64504;51.308;8.620;2023-01-05T10:09:12;10.93;;;7.90;;
75858;SDS011;64504;51.308;8.620;2023-01-05T10:14:38;12.13;;;8.20;;
75858;SDS011;64504;51.308;8.620;2023-01-05T10:17:12;12.55;;;6.40;;
75858;SDS011;64504;51.308;8.620;2023-01-05T10:19:39;10.65;;;7.05;;
75858;SDS011;64504;51.308;8.620;2023-01-05T10:35:31;16.40;;;7.32;;
75858;SDS011;64504;51.308;8.620;2023-01-05T10:41:31;13.00;;;5.90;;
75858;SDS011;64504;51.308;8.620;2023-01-05T10:44:06;14.57;;;8.13;;
75858;SDS011;64504;51.308;8.620;2023-01-05T10:46:46;16.25;;;7.32;;
75858;SDS011;64504;51.308;8.620;2023-01-05T10:49:20;15.77;;;6.65;;
75858;SDS011;64504;51.308;8.620;2023-01-05T10:51:52;9.02;;;6.32;;
75858;SDS011;64504;51.308;8.620;2023-01-05T10:54:39;14.35;;;7.25;;
75858;SDS011;64504;51.308;8.620;2023-01-05T10:57:34;10.68;;;6.68;;
75858;SDS011;64504;51.308;8.620;2023-01-05T11:02:35;10.80;;;7.35;;
75858;SDS011;64504;51.308;8.620;2023-01-05T11:07:45;13.18;;;7.63;;
75858;SDS011;64504;51.308;8.620;2023-01-05T11:10:34;11.73;;;6.47;;
75858;SDS011;64504;51.308;8.620;2023-01-05T11:13:03;11.90;;;6.75;;
75858;SDS011;64504;51.308;8.620;2023-01-05T11:15:31;10.73;;;6.78;;
75858;SDS011;64504;51.308;8.620;2023-01-05T11:17:59;18.77;;;8.35;;
75858;SDS011;64504;51.308;8.620;2023-01-05T11:20:26;16.23;;;7.60;;
75858;SDS011;64504;51.308;8.620;2023-01-05T11:22:52;10.55;;;6.13;;
75858;SDS011;64504;51.308;8.620;2023-01-05T11:25:26;23.00;;;6.65;;
75858;SDS011;64504;51.308;8.620;2023-01-05T11:28:36;16.23;;;9.23;;
75858;SDS011;64504;51.308;8.620;2023-01-05T11:31:04;13.95;;;7.25;;
75858;SDS011;64504;51.308;8.620;2023-01-05T11:33:29;17.30;;;9.27;;
75858;SDS011;64504;51.308;8.620;2023-01-05T11:35:58;24.10;;;9.30;;
75858;SDS011;64504;51.308;8.620;2023-01-05T11:38:27;16.33;;;7.75;;
75858;SDS011;64504;51.308;8.620;2023-01-05T11:40:54;23.52;;;8.23;;
75858;SDS011;64504;51.308;8.620;2023-01-05T11:43:22;9.02;;;7.88;;
75858;SDS011;64504;51.308;8.620;2023-01-05T11:45:50;25.42;;;9.77;;
75858;SDS011;64504;51.308;8.620;2023-01-05T11:48:19;13.70;;;7.97;;
75858;SDS011;64504;51.308;8.620;2023-01-05T11:50:50;17.73;;;8.20;;
75858;SDS011;64504;51.308;8.620;2023-01-05T11:53:21;23.30;;;8.02;;
75858;SDS011;64504;51.308;8.620;2023-01-05T11:56:16;22.10;;;7.97;;
75858;SDS011;64504;51.308;8.620;2023-01-05T11:58:42;17.00;;;9.40;;
75858;SDS011;64504;51.308;8.620;2023-01-05T12:03:46;15.57;;;8.10;;
75858;SDS011;64504;51.308;8.620;2023-01-05T12:34:37;11.57;;;8.32;;
75858;SDS011;64504;51.308;8.620;2023-01-05T12:45:23;19.90;;;9.50;;
75858;SDS011;64504;51.308;8.620;2023-01-05T12:48:02;25.85;;;8.43;;
75858;SDS011;64504;51.308;8.620;2023-01-05T12:50:44;20.13;;;9.43;;
75858;SDS011;64504;51.308;8.620;2023-01-05T12:55:57;17.90;;;9.38;;
75858;SDS011;64504;51.308;8.620;2023-01-05T12:58:31;18.33;;;8.02;;
75858;SDS011;64504;51.308;8.620;2023-01-05T13:01:00;13.73;;;7.70;;
75858;SDS011;64504;51.308;8.620;2023-01-05T13:03:38;14.43;;;8.05;;
75858;SDS011;64504;51.308;8.620;2023-01-05T13:06:06;11.80;;;6.18;;
75858;SDS011;64504;51.308;8.620;2023-01-05T13:08:42;23.08;;;9.52;;
75858;SDS011;64504;51.308;8.620;2023-01-05T13:13:59;15.45;;;6.57;;
75858;SDS011;64504;51.308;8.620;2023-01-05T13:16:34;16.85;;;7.60;;
75858;SDS011;64504;51.308;8.620;2023-01-05T13:21:58;16.55;;;5.65;;
75858;SDS011;64504;51.308;8.620;2023-01-05T13:25:12;14.88;;;5.28;;
75858;SDS011;64504;51.308;8.620;2023-01-05T13:27:17;14.43;;;5.30;;
75858;SDS011;64504;51.308;8.620;2023-01-05T13:29:43;16.05;;;6.00;;
75858;SDS011;64504;51.308;8.620;2023-01-05T13:32:17;7.57;;;6.10;;
75858;SDS011;64504;51.308;8.620;2023-01-05T13:35:06;15.55;;;6.63;;
75858;SDS011;64504;51.308;8.620;2023-01-05T13:54:19;13.48;;;7.00;;
75858;SDS011;64504;51.308;8.620;2023-01-05T13:56:51;20.58;;;7.65;;
75858;SDS011;64504;51.308;8.620;2023-01-05T13:59:28;12.52;;;7.32;;
75858;SDS011;64504;51.308;8.620;2023-01-05T14:01:56;10.85;;;6.65;;
75858;SDS011;64504;51.308;8.620;2023-01-05T14:04:25;20.23;;;7.30;;
75858;SDS011;64504;51.308;8.620;2023-01-05T14:06:54;19.52;;;7.82;;
75858;SDS011;64504;51.308;8.620;2023-01-05T14:09:38;18.10;;;6.53;;
75858;SDS011;64504;51.308;8.620;2023-01-05T14:26:04;8.68;;;5.38;;
75858;SDS011;64504;51.308;8.620;2023-01-05T14:36:32;16.50;;;6.13;;
75858;SDS011;64504;51.308;8.620;2023-01-05T14:39:19;11.18;;;4.95;;
75858;SDS011;64504;51.308;8.620;2023-01-05T14:44:33;11.82;;;7.10;;
75858;SDS011;64504;51.308;8.620;2023-01-05T14:47:00;12.90;;;5.05;;
75858;SDS011;64504;51.308;8.620;2023-01-05T14:49:29;14.80;;;5.03;;
75858;SDS011;64504;51.308;8.620;2023-01-05T14:51:57;9.68;;;6.03;;
75858;SDS011;64504;51.308;8.620;2023-01-05T15:00:04;13.48;;;5.20;;
75858;SDS011;64504;51.308;8.620;2023-01-05T15:03:09;12.48;;;6.22;;
75858;SDS011;64504;51.308;8.620;2023-01-05T15:05:33;7.72;;;5.28;;
75858;SDS011;64504;51.308;8.620;2023-01-05T15:11:03;14.02;;;5.65;;
75858;SDS011;64504;51.308;8.620;2023-01-05T15:16:59;10.98;;;6.82;;
75858;SDS011;64504;51.308;8.620;2023-01-05T15:19:37;8.98;;;4.15;;
75858;SDS011;64504;51.308;8.620;2023-01-05T15:27:32;22.13;;;5.72;;
75858;SDS011;64504;51.308;8.620;2023-01-05T15:30:16;13.38;;;6.47;;
75858;SDS011;64504;51.308;8.620;2023-01-05T15:33:47;10.63;;;5.95;;
75858;SDS011;64504;51.308;8.620;2023-01-05T15:36:03;14.43;;;6.40;;
75858;SDS011;64504;51.308;8.620;2023-01-05T15:38:40;11.50;;;5.70;;
75858;SDS011;64504;51.308;8.620;2023-01-05T15:41:09;17.88;;;9.35;;
75858;SDS011;64504;51.308;8.620;2023-01-05T15:43:36;12.75;;;6.55;;
75858;SDS011;64504;51.308;8.620;2023-01-05T15:46:03;10.88;;;6.13;;
75858;SDS011;64504;51.308;8.620;2023-01-05T15:48:36;17.02;;;7.50;;
75858;SDS011;64504;51.308;8.620;2023-01-05T15:51:04;11.80;;;5.85;;
75858;SDS011;64504;51.308;8.620;2023-01-05T15:53:31;14.07;;;6.10;;
75858;SDS011;64504;51.308;8.620;2023-01-05T15:56:00;20.65;;;6.97;;
75858;SDS011;64504;51.308;8.620;2023-01-05T15:58:29;22.17;;;7.78;;
75858;SDS011;64504;51.308;8.620;2023-01-05T16:03:28;14.32;;;5.80;;
75858;SDS011;64504;51.308;8.620;2023-01-05T16:06:03;8.63;;;5.03;;
75858;SDS011;64504;51.308;8.620;2023-01-05T16:08:32;5.70;;;4.25;;
75858;SDS011;64504;51.308;8.620;2023-01-05T16:11:00;15.32;;;7.40;;
75858;SDS011;64504;51.308;8.620;2023-01-05T16:15:59;12.77;;;5.70;;
75858;SDS011;64504;51.308;8.620;2023-01-05T16:18:36;14.85;;;6.88;;
75858;SDS011;64504;51.308;8.620;2023-01-05T16:21:10;11.15;;;6.30;;
75858;SDS011;64504;51.308;8.620;2023-01-05T16:23:51;10.93;;;5.22;;
75858;SDS011;64504;51.308;8.620;2023-01-05T16:26:22;15.40;;;6.78;;
75858;SDS011;64504;51.308;8.620;2023-01-05T16:28:47;17.70;;;6.03;;
75858;SDS011;64504;51.308;8.620;2023-01-05T16:31:14;13.35;;;8.00;;
75858;SDS011;64504;51.308;8.620;2023-01-05T16:33:59;10.68;;;6.30;;
75858;SDS011;64504;51.308;8.620;2023-01-05T16:36:26;14.40;;;6.63;;
75858;SDS011;64504;51.308;8.620;2023-01-05T16:38:51;7.85;;;6.25;;
75858;SDS011;64504;51.308;8.620;2023-01-05T16:43:51;24.83;;;13.55;;
75858;SDS011;64504;51.308;8.620;2023-01-05T16:51:13;19.27;;;8.25;;
75858;SDS011;64504;51.308;8.620;2023-01-05T16:53:43;23.90;;;7.68;;
75858;SDS011;64504;51.308;8.620;2023-01-05T16:56:20;21.05;;;8.23;;
75858;SDS011;64504;51.308;8.620;2023-01-05T17:04:55;18.80;;;7.43;;
75858;SDS011;64504;51.308;8.620;2023-01-05T17:07:20;23.05;;;7.95;;
75858;SDS011;64504;51.308;8.620;2023-01-05T17:09:49;21.23;;;8.77;;
75858;SDS011;64504;51.308;8.620;2023-01-05T17:12:14;15.48;;;7.90;;
75858;SDS011;64504;51.308;8.620;2023-01-05T17:14:40;24.20;;;7.93;;
75858;SDS011;64504;51.308;8.620;2023-01-05T17:17:10;14.23;;;7.30;;
75858;SDS011;64504;51.308;8.620;2023-01-05T17:19:36;16.50;;;8.23;;
75858;SDS011;64504;51.308;8.620;2023-01-05T17:22:02;18.80;;;8.52;;
75858;SDS011;64504;51.308;8.620;2023-01-05T17:24:32;11.93;;;7.32;;
75858;SDS011;64504;51.308;8.620;2023-01-05T17:26:58;14.20;;;7.32;;
75858;SDS011;64504;51.308;8.620;2023-01-05T17:29:25;12.15;;;6.65;;
75858;SDS011;64504;51.308;8.620;2023-01-05T17:31:53;11.25;;;6.15;;
75858;SDS011;64504;51.308;8.620;2023-01-05T17:34:19;21.38;;;7.38;;
75858;SDS011;64504;51.308;8.620;2023-01-05T17:36:47;26.38;;;9.13;;
75858;SDS011;64504;51.308;8.620;2023-01-05T17:39:17;20.55;;;9.98;;
75858;SDS011;64504;51.308;8.620;2023-01-05T17:41:43;23.25;;;10.25;;
75858;SDS011;64504;51.308;8.620;2023-01-05T17:44:10;30.00;;;9.70;;
75858;SDS011;64504;51.308;8.620;2023-01-05T17:46:37;21.35;;;7.43;;
75858;SDS011;64504;51.308;8.620;2023-01-05T17:49:11;11.57;;;7.47;;
75858;SDS011;64504;51.308;8.620;2023-01-05T17:51:41;28.70;;;10.35;;
75858;SDS011;64504;51.308;8.620;2023-01-05T17:54:07;34.28;;;8.07;;
75858;SDS011;64504;51.308;8.620;2023-01-05T17:56:32;12.70;;;7.65;;
75858;SDS011;64504;51.308;8.620;2023-01-05T17:58:58;22.42;;;10.88;;